createdAt,value
2022-08-17T00:01:26.273Z,17.55
2022-08-17T00:03:54.473Z,17.27
2022-08-17T00:06:28.122Z,18.13
2022-08-17T00:08:55.755Z,17.50
2022-08-17T00:11:28.540Z,18.08
2022-08-17T00:13:57.382Z,18.13
2022-08-17T00:16:53.457Z,18.70
2022-08-17T00:19:18.557Z,17.00
2022-08-17T00:22:31.233Z,16.90
2022-08-17T00:24:32.780Z,17.30
2022-08-17T00:26:59.427Z,18.55
2022-08-17T00:29:25.693Z,17.73
2022-08-17T00:31:52.230Z,17.33
2022-08-17T00:34:18.991Z,19.00
2022-08-17T00:39:17.063Z,18.17
2022-08-17T00:41:45.687Z,18.20
2022-08-17T00:44:12.220Z,18.83
2022-08-17T00:46:40.429Z,18.65
2022-08-17T00:49:07.575Z,18.35
2022-08-17T00:51:39.691Z,18.45
2022-08-17T00:54:09.248Z,17.58
2022-08-17T00:56:42.836Z,18.17
2022-08-17T00:59:11.120Z,16.05
2022-08-17T01:01:37.987Z,17.15
2022-08-17T01:06:31.683Z,16.30
2022-08-17T01:08:59.522Z,16.92
2022-08-17T01:11:26.589Z,17.65
2022-08-17T01:13:53.329Z,16.52
2022-08-17T01:16:26.556Z,17.33
2022-08-17T01:18:58.650Z,17.98
2022-08-17T01:21:40.149Z,17.60
2022-08-17T01:24:06.725Z,18.02
2022-08-17T01:26:34.291Z,16.92
2022-08-17T01:29:01.354Z,17.27
2022-08-17T01:31:32.778Z,16.40
2022-08-17T01:34:04.213Z,17.73
2022-08-17T01:36:33.529Z,16.98
2022-08-17T01:39:00.342Z,17.50
2022-08-17T01:41:27.107Z,17.42
2022-08-17T01:44:04.100Z,17.15
2022-08-17T01:46:33.396Z,17.20
2022-08-17T01:49:01.167Z,18.13
2022-08-17T01:51:30.754Z,17.60
2022-08-17T01:53:57.966Z,18.05
2022-08-17T01:56:25.603Z,18.15
2022-08-17T01:58:52.379Z,16.65
2022-08-17T02:01:20.201Z,18.08
2022-08-17T02:03:53.126Z,18.48
2022-08-17T02:06:27.908Z,18.40
2022-08-17T02:09:02.723Z,19.00
2022-08-17T02:11:29.794Z,19.08
2022-08-17T02:14:02.862Z,18.77
2022-08-17T02:16:37.744Z,19.50
2022-08-17T02:19:08.282Z,18.92
2022-08-17T02:21:35.739Z,20.48
2022-08-17T02:24:03.134Z,19.65
2022-08-17T02:26:29.556Z,21.27
2022-08-17T02:28:55.900Z,22.38
2022-08-17T02:31:22.257Z,21.08
2022-08-17T02:34:00.394Z,22.15
2022-08-17T02:36:31.852Z,21.35
2022-08-17T02:41:24.972Z,19.83
2022-08-17T02:43:51.419Z,19.55
2022-08-17T02:46:19.500Z,20.20
2022-08-17T02:48:48.618Z,18.50
2022-08-17T02:51:17.910Z,19.67
2022-08-17T02:53:46.781Z,17.98
2022-08-17T02:56:13.313Z,17.05
2022-08-17T02:58:39.652Z,17.17
2022-08-17T03:01:06.931Z,18.13
2022-08-17T03:03:35.853Z,16.50
2022-08-17T03:06:02.549Z,17.75
2022-08-17T03:08:29.234Z,16.77
2022-08-17T03:10:56.028Z,17.35
2022-08-17T03:13:22.518Z,17.55
2022-08-17T03:15:48.977Z,16.73
2022-08-17T03:18:24.784Z,16.55
2022-08-17T03:20:56.821Z,16.50
2022-08-17T03:23:24.312Z,16.83
2022-08-17T03:25:52.940Z,18.55
2022-08-17T03:28:19.801Z,17.40
2022-08-17T03:30:46.328Z,17.20
2022-08-17T03:33:12.657Z,16.98
2022-08-17T03:35:40.371Z,18.25
2022-08-17T03:38:07.615Z,17.20
2022-08-17T03:40:57.892Z,17.60
2022-08-17T03:43:21.579Z,18.55
2022-08-17T03:46:10.747Z,18.67
2022-08-17T03:49:11.955Z,18.77
2022-08-17T03:51:56.845Z,19.70
2022-08-17T03:54:41.820Z,19.42
2022-08-17T03:57:09.935Z,19.45
2022-08-17T03:59:36.727Z,18.52
2022-08-17T04:02:09.123Z,20.23
2022-08-17T04:04:36.277Z,18.52
2022-08-17T04:07:02.708Z,20.42
2022-08-17T04:09:29.139Z,19.73
2022-08-17T04:11:55.429Z,20.35
2022-08-17T04:14:26.619Z,21.15
2022-08-17T04:16:52.909Z,22.52
2022-08-17T04:19:19.317Z,23.13
2022-08-17T04:21:48.661Z,23.67
2022-08-17T04:24:17.316Z,23.00
2022-08-17T04:26:52.957Z,23.35
2022-08-17T04:29:21.301Z,24.00
2022-08-17T04:34:19.700Z,23.90
2022-08-17T04:36:56.049Z,23.45
2022-08-17T04:39:29.286Z,22.80
2022-08-17T04:42:09.095Z,24.13
2022-08-17T04:44:37.402Z,23.98
2022-08-17T04:47:04.557Z,24.58
2022-08-17T04:49:30.861Z,25.85
2022-08-17T04:52:00.120Z,25.30
2022-08-17T04:54:30.639Z,24.42
2022-08-17T04:56:56.947Z,25.58
2022-08-17T04:59:23.289Z,24.40
2022-08-17T05:01:50.952Z,25.70
2022-08-17T05:04:34.343Z,25.38
2022-08-17T05:07:01.962Z,26.42
2022-08-17T05:09:28.963Z,26.40
2022-08-17T05:14:22.711Z,26.25
2022-08-17T05:17:00.011Z,26.45
2022-08-17T05:19:27.520Z,25.15
2022-08-17T05:21:53.849Z,26.42
2022-08-17T05:24:43.141Z,25.60
2022-08-17T05:27:06.874Z,25.23
2022-08-17T05:29:35.457Z,24.52
2022-08-17T05:32:38.550Z,22.63
2022-08-17T05:35:00.958Z,24.17
2022-08-17T05:37:27.374Z,25.08
2022-08-17T05:39:54.395Z,24.05
2022-08-17T05:42:20.874Z,23.40
2022-08-17T05:44:47.350Z,23.65
2022-08-17T05:47:16.617Z,24.33
2022-08-17T05:49:53.836Z,24.52
2022-08-17T05:52:20.423Z,24.42
2022-08-17T05:54:52.916Z,25.50
2022-08-17T05:57:20.954Z,23.20
2022-08-17T05:59:48.400Z,24.98
2022-08-17T06:02:18.900Z,24.52
2022-08-17T06:05:02.417Z,24.58
2022-08-17T06:07:36.515Z,23.15
2022-08-17T06:10:12.259Z,24.42
2022-08-17T06:12:47.872Z,22.85
2022-08-17T06:15:27.256Z,23.70
2022-08-17T06:17:56.324Z,22.33
2022-08-17T06:20:23.368Z,21.70
2022-08-17T06:22:52.108Z,22.35
2022-08-17T06:25:31.656Z,22.08
2022-08-17T06:28:00.699Z,20.42
2022-08-17T06:30:28.701Z,21.27
2022-08-17T06:33:22.742Z,20.05
2022-08-17T06:35:55.954Z,19.58
2022-08-17T06:38:44.994Z,19.65
2022-08-17T06:41:41.753Z,18.75
2022-08-17T06:44:11.980Z,19.15
2022-08-17T06:47:03.101Z,16.45
2022-08-17T06:49:33.158Z,16.02
2022-08-17T06:52:12.203Z,15.40
2022-08-17T06:55:05.152Z,16.00
2022-08-17T06:57:32.790Z,15.43
2022-08-17T07:00:02.451Z,15.00
2022-08-17T07:02:53.271Z,16.30
2022-08-17T07:05:19.372Z,15.85
2022-08-17T07:08:03.864Z,15.05
2022-08-17T07:10:45.742Z,14.27
2022-08-17T07:13:22.884Z,15.63
2022-08-17T07:15:54.027Z,13.57
2022-08-17T07:18:24.627Z,15.73
2022-08-17T07:20:54.099Z,18.58
2022-08-17T07:23:29.441Z,19.83
2022-08-17T07:26:03.850Z,18.48
2022-08-17T07:28:34.161Z,18.52
2022-08-17T07:31:03.860Z,19.50
2022-08-17T07:33:33.363Z,19.70
2022-08-17T07:36:01.105Z,20.02
2022-08-17T07:38:32.608Z,19.08
2022-08-17T07:41:05.082Z,20.02
2022-08-17T07:43:40.552Z,19.48
2022-08-17T07:46:46.754Z,20.02
2022-08-17T07:49:13.034Z,20.13
2022-08-17T07:51:42.391Z,20.35
2022-08-17T07:54:15.312Z,18.48
2022-08-17T07:56:48.069Z,20.38
2022-08-17T07:59:18.376Z,19.48
2022-08-17T08:01:58.928Z,18.98
2022-08-17T08:04:59.303Z,18.43
2022-08-17T08:09:48.889Z,19.30
2022-08-17T08:12:24.672Z,17.73
2022-08-17T08:15:01.775Z,17.95
2022-08-17T08:17:31.944Z,19.42
2022-08-17T08:19:59.661Z,17.98
2022-08-17T08:22:30.394Z,18.23
2022-08-17T08:24:59.793Z,17.35
2022-08-17T08:27:34.397Z,17.23
2022-08-17T08:30:00.722Z,18.17
2022-08-17T08:32:27.015Z,18.75
2022-08-17T08:35:02.664Z,16.27
2022-08-17T08:37:42.503Z,17.60
2022-08-17T08:40:28.243Z,15.93
2022-08-17T08:43:04.558Z,16.33
2022-08-17T08:45:52.299Z,16.77
2022-08-17T08:51:17.321Z,16.20
2022-08-17T08:53:43.666Z,14.60
2022-08-17T08:56:20.656Z,14.77
2022-08-17T08:58:53.052Z,15.95
2022-08-17T09:01:25.294Z,13.77
2022-08-17T09:03:54.971Z,14.32
2022-08-17T09:06:33.339Z,14.60
2022-08-17T09:09:06.392Z,13.50
2022-08-17T09:11:35.666Z,15.75
2022-08-17T09:14:28.749Z,14.68
2022-08-17T09:16:55.603Z,15.88
2022-08-17T09:19:30.739Z,17.27
2022-08-17T09:22:12.073Z,16.67
2022-08-17T09:24:39.987Z,18.58
2022-08-17T09:27:09.070Z,16.83
2022-08-17T09:29:38.873Z,17.48
2022-08-17T09:32:18.216Z,17.52
2022-08-17T09:34:53.574Z,16.25
2022-08-17T09:37:25.355Z,16.98
2022-08-17T09:40:09.932Z,17.45
2022-08-17T09:42:50.160Z,17.38
2022-08-17T09:45:34.877Z,18.40
2022-08-17T09:48:07.295Z,17.10
2022-08-17T09:51:04.141Z,16.58
2022-08-17T09:53:25.150Z,17.50
2022-08-17T09:55:51.489Z,17.90
2022-08-17T09:58:25.663Z,17.15
2022-08-17T10:01:10.905Z,16.02
2022-08-17T10:03:59.713Z,18.00
2022-08-17T10:06:29.573Z,18.20
2022-08-17T10:08:55.989Z,16.88
2022-08-17T10:12:07.237Z,16.60
2022-08-17T10:14:37.553Z,16.98
2022-08-17T10:17:39.389Z,17.30
2022-08-17T10:20:09.307Z,17.13
2022-08-17T10:23:06.881Z,16.05
2022-08-17T10:25:55.868Z,17.30
2022-08-17T10:28:29.532Z,17.15
2022-08-17T10:31:16.735Z,17.83
2022-08-17T10:33:57.668Z,17.80
2022-08-17T10:36:28.993Z,17.75
2022-08-17T10:39:21.604Z,17.27
2022-08-17T10:41:50.723Z,16.23
2022-08-17T10:44:38.932Z,17.60
2022-08-17T10:47:11.615Z,16.85
2022-08-17T10:49:48.615Z,17.30
2022-08-17T10:52:26.162Z,16.98
2022-08-17T10:54:58.279Z,18.33
2022-08-17T10:57:34.118Z,19.80
2022-08-17T11:00:01.879Z,17.90
2022-08-17T11:02:50.594Z,18.08
2022-08-17T11:05:32.317Z,18.27
2022-08-17T11:08:17.485Z,20.20
2022-08-17T11:11:03.103Z,19.88
2022-08-17T11:13:48.373Z,21.27
2022-08-17T11:16:36.002Z,17.98
2022-08-17T11:21:42.619Z,19.55
2022-08-17T11:24:28.434Z,20.27
2022-08-17T11:27:03.482Z,20.10
2022-08-17T11:29:38.954Z,18.90
2022-08-17T11:32:13.454Z,18.85
2022-08-17T11:34:41.727Z,19.08
2022-08-17T11:37:22.417Z,20.20
2022-08-17T11:40:01.593Z,19.58
2022-08-17T11:42:31.159Z,17.95
2022-08-17T11:44:59.376Z,19.15
2022-08-17T11:48:09.073Z,19.10
2022-08-17T11:50:55.823Z,18.67
2022-08-17T11:54:03.616Z,19.83
2022-08-17T11:56:46.268Z,18.30
2022-08-17T11:59:36.924Z,19.75
2022-08-17T12:02:04.363Z,19.17
2022-08-17T12:04:32.688Z,20.88
2022-08-17T12:07:17.977Z,19.67
2022-08-17T12:09:46.159Z,20.27
2022-08-17T12:12:50.080Z,17.75
2022-08-17T12:15:25.335Z,19.73
2022-08-17T12:17:53.410Z,19.67
2022-08-17T12:20:25.971Z,20.35
2022-08-17T12:23:00.838Z,20.05
2022-08-17T12:25:40.791Z,19.80
2022-08-17T12:28:42.648Z,22.70
2022-08-17T12:31:19.030Z,21.92
2022-08-17T12:33:46.582Z,22.17
2022-08-17T12:36:16.689Z,21.88
2022-08-17T12:38:49.977Z,22.40
2022-08-17T12:41:36.676Z,22.52
2022-08-17T12:44:23.286Z,24.35
2022-08-17T12:47:04.784Z,26.58
2022-08-17T12:49:32.681Z,27.42
2022-08-17T12:52:05.770Z,29.70
2022-08-17T12:54:40.694Z,30.25
2022-08-17T12:57:13.544Z,31.70
2022-08-17T12:59:41.234Z,33.13
2022-08-17T13:02:10.359Z,32.58
2022-08-17T13:04:39.827Z,33.10
2022-08-17T13:07:06.739Z,35.05
2022-08-17T13:12:02.723Z,34.22
2022-08-17T13:14:31.567Z,33.40
2022-08-17T13:17:06.295Z,33.85
2022-08-17T13:19:48.209Z,34.03
2022-08-17T13:22:15.889Z,36.35
2022-08-17T13:24:55.524Z,34.45
2022-08-17T13:27:23.169Z,35.30
2022-08-17T13:29:53.463Z,36.35
2022-08-17T13:32:22.918Z,36.80
2022-08-17T13:35:14.339Z,36.78
2022-08-17T13:37:37.667Z,36.83
2022-08-17T13:40:10.164Z,36.70
2022-08-17T13:42:51.741Z,36.03
2022-08-17T13:45:39.170Z,36.72
2022-08-17T13:48:13.549Z,36.13
2022-08-17T13:51:03.323Z,35.92
2022-08-17T13:53:31.308Z,35.65
2022-08-17T13:56:00.664Z,35.10
2022-08-17T13:58:37.679Z,38.92
2022-08-17T14:01:24.276Z,38.75
2022-08-17T14:03:53.752Z,37.85
2022-08-17T14:06:52.095Z,38.45
2022-08-17T14:09:07.911Z,35.90
2022-08-17T14:11:34.354Z,40.28
2022-08-17T14:14:00.897Z,38.85
2022-08-17T14:16:27.212Z,37.97
2022-08-17T14:18:57.274Z,37.05
2022-08-17T14:21:23.813Z,39.50
2022-08-17T14:23:54.377Z,39.53
2022-08-17T14:26:21.466Z,38.60
2022-08-17T14:28:56.551Z,36.67
2022-08-17T14:31:23.674Z,37.45
2022-08-17T14:33:50.058Z,34.88
2022-08-17T14:36:16.410Z,36.17
2022-08-17T14:38:42.917Z,34.92
2022-08-17T14:41:09.307Z,34.08
2022-08-17T14:43:38.124Z,33.03
2022-08-17T14:46:04.768Z,34.63
2022-08-17T14:48:38.180Z,34.15
2022-08-17T14:51:05.017Z,34.38
2022-08-17T14:55:57.626Z,32.97
2022-08-17T14:58:23.980Z,30.90
2022-08-17T15:00:53.330Z,31.92
2022-08-17T15:03:19.715Z,30.90
2022-08-17T15:05:46.781Z,29.30
2022-08-17T15:08:13.092Z,30.55
2022-08-17T15:10:39.405Z,29.50
2022-08-17T15:13:17.028Z,30.02
2022-08-17T15:15:43.358Z,29.55
2022-08-17T15:18:09.682Z,28.25
2022-08-17T15:20:35.980Z,28.35
2022-08-17T15:23:02.317Z,28.98
2022-08-17T15:25:29.703Z,27.45
2022-08-17T15:27:56.170Z,26.45
2022-08-17T15:32:54.411Z,26.85
2022-08-17T15:35:27.073Z,27.67
2022-08-17T15:37:54.003Z,27.25
2022-08-17T15:40:20.416Z,26.33
2022-08-17T15:42:46.926Z,24.58
2022-08-17T15:47:40.115Z,25.95
2022-08-17T15:52:39.984Z,25.45
2022-08-17T15:55:08.849Z,23.05
2022-08-17T15:57:36.116Z,24.02
2022-08-17T16:00:03.588Z,23.23
2022-08-17T16:03:13.819Z,23.35
2022-08-17T16:05:21.910Z,21.45
2022-08-17T16:07:50.952Z,21.55
2022-08-17T16:10:19.198Z,21.10
2022-08-17T16:12:46.702Z,21.73
2022-08-17T16:15:13.778Z,22.98
2022-08-17T16:17:43.155Z,22.20
2022-08-17T16:20:10.457Z,23.45
2022-08-17T16:22:47.717Z,24.65
2022-08-17T16:25:16.752Z,25.45
2022-08-17T16:27:43.465Z,27.00
2022-08-17T16:30:17.045Z,27.95
2022-08-17T16:32:44.466Z,28.08
2022-08-17T16:37:39.449Z,30.50
2022-08-17T16:40:08.412Z,28.88
2022-08-17T16:42:36.984Z,27.38
2022-08-17T16:45:23.802Z,27.10
2022-08-17T16:47:50.536Z,27.00
2022-08-17T16:50:18.655Z,27.67
2022-08-17T16:52:48.414Z,26.33
2022-08-17T16:55:16.414Z,28.80
2022-08-17T16:57:47.370Z,28.92
2022-08-17T17:00:16.544Z,29.00
2022-08-17T17:02:46.086Z,31.17
2022-08-17T17:05:38.801Z,30.73
2022-08-17T17:08:09.757Z,30.67
2022-08-17T17:10:43.066Z,30.85
2022-08-17T17:13:32.237Z,32.88
2022-08-17T17:16:00.749Z,32.28
2022-08-17T17:18:38.178Z,33.67
2022-08-17T17:23:50.105Z,33.42
2022-08-17T17:26:35.441Z,34.30
2022-08-17T17:29:06.011Z,34.30
2022-08-17T17:31:38.137Z,36.05
2022-08-17T17:34:05.701Z,35.60
2022-08-17T17:36:41.156Z,36.08
2022-08-17T17:39:13.199Z,35.10
2022-08-17T17:41:59.522Z,36.30
2022-08-17T17:44:28.726Z,36.97
2022-08-17T17:47:02.317Z,37.25
2022-08-17T17:49:30.447Z,36.75
2022-08-17T17:52:10.213Z,38.03
2022-08-17T17:54:40.977Z,37.88
2022-08-17T17:57:10.969Z,37.47
2022-08-17T17:59:46.475Z,38.15
2022-08-17T18:02:51.445Z,38.30
2022-08-17T18:05:28.131Z,40.53
2022-08-17T18:08:00.722Z,38.65
2022-08-17T18:10:37.105Z,38.45
2022-08-17T18:13:13.870Z,38.60
2022-08-17T18:15:42.992Z,39.03
2022-08-17T18:18:18.171Z,38.83
2022-08-17T18:20:53.197Z,39.83
2022-08-17T18:23:25.543Z,37.95
2022-08-17T18:25:54.621Z,38.28
2022-08-17T18:28:26.921Z,41.30
2022-08-17T18:31:12.087Z,41.50
2022-08-17T18:33:39.817Z,41.03
2022-08-17T18:36:06.799Z,42.40
2022-08-17T18:41:17.099Z,38.17
2022-08-17T18:43:52.690Z,39.45
2022-08-17T18:46:28.616Z,37.92
2022-08-17T18:49:07.599Z,39.20
2022-08-17T18:51:42.181Z,38.22
2022-08-17T18:56:41.355Z,36.72
2022-08-17T18:59:27.183Z,35.80
2022-08-17T19:01:58.206Z,35.20
2022-08-17T19:04:34.702Z,36.85
2022-08-17T19:07:10.325Z,35.33
2022-08-17T19:09:39.815Z,37.25
2022-08-17T19:12:08.137Z,36.22
2022-08-17T19:14:34.499Z,36.72
2022-08-17T19:17:05.467Z,35.58
2022-08-17T19:19:47.229Z,33.60
2022-08-17T19:22:28.782Z,37.63
2022-08-17T19:25:11.252Z,37.72
2022-08-17T19:28:04.145Z,34.25
2022-08-17T19:30:48.757Z,37.65
2022-08-17T19:33:17.249Z,37.17
2022-08-17T19:36:18.595Z,38.70
2022-08-17T19:38:50.367Z,38.08
2022-08-17T19:41:33.935Z,39.97
2022-08-17T19:44:12.285Z,39.47
2022-08-17T19:46:39.223Z,40.67
2022-08-17T19:49:21.402Z,42.28
2022-08-17T19:52:06.486Z,41.13
2022-08-17T19:54:47.897Z,40.58
2022-08-17T19:57:18.206Z,42.47
2022-08-17T20:00:00.978Z,44.50
2022-08-17T20:02:39.427Z,41.90
2022-08-17T20:05:11.254Z,41.35
2022-08-17T20:07:45.855Z,39.58
2022-08-17T20:10:20.971Z,39.45
2022-08-17T20:12:51.514Z,41.15
2022-08-17T20:15:22.869Z,40.67
2022-08-17T20:17:49.330Z,42.53
2022-08-17T20:20:47.262Z,40.63
2022-08-17T20:23:28.964Z,39.70
2022-08-17T20:26:18.960Z,38.78
2022-08-17T20:29:06.049Z,40.70
2022-08-17T20:31:40.155Z,40.95
2022-08-17T20:34:25.316Z,41.58
2022-08-17T20:37:06.109Z,42.92
2022-08-17T20:39:42.511Z,42.92
2022-08-17T20:42:08.873Z,44.80
2022-08-17T20:44:37.766Z,43.67
2022-08-17T20:47:07.148Z,45.65
2022-08-17T20:49:33.392Z,45.50
2022-08-17T20:52:07.715Z,45.97
2022-08-17T20:54:43.038Z,44.80
2022-08-17T20:57:13.932Z,44.70
2022-08-17T20:59:43.492Z,45.70
2022-08-17T21:02:19.335Z,46.42
2022-08-17T21:04:54.314Z,54.28
2022-08-17T21:07:23.574Z,50.55
2022-08-17T21:09:50.678Z,50.15
2022-08-17T21:14:43.384Z,48.67
2022-08-17T21:17:29.675Z,53.05
2022-08-17T21:20:10.862Z,53.75
2022-08-17T21:22:38.298Z,52.45
2022-08-17T21:25:16.900Z,51.53
2022-08-17T21:27:56.045Z,49.60
2022-08-17T21:30:44.448Z,49.95
2022-08-17T21:33:20.180Z,48.85
2022-08-17T21:36:05.375Z,51.58
2022-08-17T21:38:36.017Z,48.28
2022-08-17T21:41:02.348Z,47.13
2022-08-17T21:43:32.359Z,49.05
2022-08-17T21:46:01.066Z,49.42
2022-08-17T21:48:28.530Z,49.08
2022-08-17T21:51:00.892Z,46.90
2022-08-17T21:53:33.170Z,46.03
2022-08-17T21:55:59.905Z,47.65
2022-08-17T21:58:34.334Z,49.08
2022-08-17T22:01:22.409Z,49.13
2022-08-17T22:04:14.990Z,48.53
2022-08-17T22:06:56.953Z,47.90
2022-08-17T22:09:34.071Z,51.38
2022-08-17T22:12:06.573Z,50.15
2022-08-17T22:14:53.191Z,49.15
2022-08-17T22:17:23.449Z,49.50
2022-08-17T22:19:51.558Z,50.42
2022-08-17T22:23:02.745Z,51.55
2022-08-17T22:25:31.004Z,48.40
2022-08-17T22:28:00.457Z,49.42
2022-08-17T22:30:40.579Z,48.78
2022-08-17T22:33:25.496Z,49.15
2022-08-17T22:36:07.692Z,49.80
2022-08-17T22:38:34.216Z,50.10
2022-08-17T22:41:17.395Z,49.75
2022-08-17T22:43:44.804Z,51.80
2022-08-17T22:46:11.939Z,50.88
2022-08-17T22:48:47.962Z,52.45
2022-08-17T22:51:17.354Z,49.13
2022-08-17T22:54:09.269Z,49.75
2022-08-17T22:56:54.641Z,48.88
2022-08-17T22:59:57.477Z,47.80
2022-08-17T23:02:34.191Z,43.22
2022-08-17T23:05:10.131Z,44.93
2022-08-17T23:07:36.507Z,46.80
2022-08-17T23:10:06.378Z,44.53
2022-08-17T23:12:38.785Z,45.25
2022-08-17T23:15:09.532Z,43.42
2022-08-17T23:17:37.569Z,46.20
2022-08-17T23:20:05.899Z,48.55
2022-08-17T23:22:32.749Z,50.00
2022-08-17T23:24:59.744Z,49.05
2022-08-17T23:29:55.888Z,48.85
2022-08-17T23:32:22.784Z,49.92
2022-08-17T23:34:52.188Z,50.47
2022-08-17T23:37:19.055Z,52.97
2022-08-17T23:39:45.988Z,50.15
2022-08-17T23:42:15.048Z,49.90
2022-08-17T23:44:43.599Z,49.20
2022-08-17T23:47:13.403Z,48.10
2022-08-17T23:49:41.240Z,47.47
2022-08-17T23:52:09.929Z,46.08
2022-08-17T23:54:41.405Z,45.28
2022-08-17T23:57:09.127Z,47.20
2022-08-17T23:59:37.171Z,46.30
